createdAt,value
2018-02-07T00:01:17.774Z,-1.81
2018-02-07T00:03:45.201Z,-1.81
2018-02-07T00:06:12.630Z,-1.74
2018-02-07T00:08:40.034Z,-1.78
2018-02-07T00:11:07.456Z,-1.77
2018-02-07T00:13:35.927Z,-1.81
2018-02-07T00:16:03.413Z,-1.84
2018-02-07T00:18:30.857Z,-1.84
2018-02-07T00:20:58.279Z,-1.81
2018-02-07T00:23:25.810Z,-1.59
2018-02-07T00:25:53.258Z,-1.66
2018-02-07T00:28:20.671Z,-1.70
2018-02-07T00:30:48.118Z,-1.68
2018-02-07T00:33:15.554Z,-1.68
2018-02-07T00:35:42.965Z,-1.68
2018-02-07T00:38:10.402Z,-1.79
2018-02-07T00:40:37.834Z,-1.74
2018-02-07T00:43:05.266Z,-1.75
2018-02-07T00:45:32.710Z,-1.76
2018-02-07T00:48:00.133Z,-1.78
2018-02-07T00:50:27.578Z,-1.83
2018-02-07T00:52:55.095Z,-1.85
2018-02-07T00:55:22.529Z,-1.62
2018-02-07T00:57:49.956Z,-1.57
2018-02-07T01:00:17.386Z,-1.73
2018-02-07T01:02:44.805Z,-1.90
2018-02-07T01:05:12.225Z,-2.10
2018-02-07T01:07:39.657Z,-2.13
2018-02-07T01:10:08.261Z,-2.14
2018-02-07T01:12:35.732Z,-2.19
2018-02-07T01:15:03.159Z,-2.31
2018-02-07T01:17:30.597Z,-2.40
2018-02-07T01:19:58.020Z,-2.44
2018-02-07T01:22:25.464Z,-2.47
2018-02-07T01:24:52.881Z,-2.44
2018-02-07T01:27:20.325Z,-2.38
2018-02-07T01:29:47.758Z,-2.39
2018-02-07T01:32:15.177Z,-2.54
2018-02-07T01:34:42.615Z,-2.41
2018-02-07T01:37:10.082Z,-2.29
2018-02-07T01:39:37.601Z,-2.32
2018-02-07T01:42:05.009Z,-2.38
2018-02-07T01:44:32.452Z,-2.07
2018-02-07T01:46:59.856Z,-2.25
2018-02-07T01:49:27.317Z,-2.33
2018-02-07T01:51:54.732Z,-2.25
2018-02-07T01:54:22.186Z,-2.20
2018-02-07T01:56:49.646Z,-2.14
2018-02-07T01:59:17.070Z,-2.10
2018-02-07T02:01:44.493Z,-2.25
2018-02-07T02:04:11.911Z,-2.30
2018-02-07T02:06:40.415Z,-2.33
2018-02-07T02:09:07.847Z,-2.40
2018-02-07T02:11:35.274Z,-2.34
2018-02-07T02:14:02.758Z,-2.20
2018-02-07T02:16:30.279Z,-2.32
2018-02-07T02:18:57.700Z,-2.40
2018-02-07T02:21:25.219Z,-2.56
2018-02-07T02:23:52.644Z,-2.65
2018-02-07T02:26:20.130Z,-2.64
2018-02-07T02:28:47.557Z,-2.56
2018-02-07T02:31:14.982Z,-2.32
2018-02-07T02:33:42.432Z,-2.50
2018-02-07T02:36:21.876Z,-2.46
2018-02-07T02:38:49.301Z,-2.15
2018-02-07T02:41:16.727Z,-2.02
2018-02-07T02:43:44.136Z,-2.30
2018-02-07T02:46:12.015Z,-2.14
2018-02-07T02:48:39.447Z,-1.94
2018-02-07T02:51:06.886Z,-2.17
2018-02-07T02:53:34.707Z,-2.48
2018-02-07T02:56:02.161Z,-2.57
2018-02-07T02:58:29.589Z,-2.86
2018-02-07T03:00:57.013Z,-2.84
2018-02-07T03:03:24.447Z,-2.87
2018-02-07T03:05:51.869Z,-2.98
2018-02-07T03:08:19.386Z,-2.94
2018-02-07T03:10:46.816Z,-2.85
2018-02-07T03:13:14.256Z,-2.79
2018-02-07T03:15:41.695Z,-2.96
2018-02-07T03:18:09.139Z,-2.93
2018-02-07T03:20:36.573Z,-2.88
2018-02-07T03:23:04.112Z,-2.91
2018-02-07T03:25:31.521Z,-3.05
2018-02-07T03:27:59.024Z,-3.12
2018-02-07T03:30:26.456Z,-3.18
2018-02-07T03:32:53.888Z,-3.12
2018-02-07T03:35:21.327Z,-3.09
2018-02-07T03:37:48.783Z,-3.00
2018-02-07T03:40:16.197Z,-3.08
2018-02-07T03:42:44.613Z,-3.06
2018-02-07T03:45:12.035Z,-3.10
2018-02-07T03:47:39.631Z,-3.06
2018-02-07T03:50:07.084Z,-2.96
2018-02-07T03:52:34.567Z,-2.93
2018-02-07T03:55:02.097Z,-2.93
2018-02-07T03:57:29.516Z,-3.02
2018-02-07T03:59:56.953Z,-3.06
2018-02-07T04:02:24.469Z,-3.06
2018-02-07T04:04:51.890Z,-3.04
2018-02-07T04:07:19.325Z,-3.06
2018-02-07T04:09:46.742Z,-3.09
2018-02-07T04:12:14.244Z,-3.05
2018-02-07T04:14:41.663Z,-3.01
2018-02-07T04:17:09.122Z,-2.95
2018-02-07T04:19:36.578Z,-2.93
2018-02-07T04:22:04.004Z,-2.97
2018-02-07T04:24:31.417Z,-2.95
2018-02-07T04:26:58.841Z,-2.94
2018-02-07T04:29:26.244Z,-2.91
2018-02-07T04:31:53.734Z,-2.89
2018-02-07T04:34:21.166Z,-2.91
2018-02-07T04:36:48.602Z,-2.86
2018-02-07T04:39:16.118Z,-2.90
2018-02-07T04:41:43.590Z,-2.85
2018-02-07T04:44:11.070Z,-2.86
2018-02-07T04:46:38.555Z,-2.85
2018-02-07T04:49:06.003Z,-2.97
2018-02-07T04:51:33.473Z,-2.85
2018-02-07T04:54:00.949Z,-2.81
2018-02-07T04:56:28.358Z,-2.73
2018-02-07T04:58:55.812Z,-2.71
2018-02-07T05:01:23.240Z,-2.74
2018-02-07T05:03:50.661Z,-2.87
2018-02-07T05:06:18.448Z,-2.90
2018-02-07T05:08:45.869Z,-2.80
2018-02-07T05:11:13.293Z,-2.85
2018-02-07T05:13:40.729Z,-2.83
2018-02-07T05:16:08.157Z,-2.89
2018-02-07T05:18:35.616Z,-2.98
2018-02-07T05:21:03.065Z,-3.01
2018-02-07T05:23:30.488Z,-2.95
2018-02-07T05:25:57.897Z,-2.90
2018-02-07T05:28:25.341Z,-2.90
2018-02-07T05:30:52.757Z,-2.98
2018-02-07T05:33:20.205Z,-2.94
2018-02-07T05:35:47.680Z,-2.98
2018-02-07T05:38:15.161Z,-3.05
2018-02-07T05:40:42.593Z,-2.98
2018-02-07T05:43:10.054Z,-2.98
2018-02-07T05:45:37.472Z,-2.97
2018-02-07T05:48:04.898Z,-2.91
2018-02-07T05:50:32.329Z,-2.90
2018-02-07T05:53:00.170Z,-2.80
2018-02-07T05:55:27.605Z,-2.82
2018-02-07T05:57:55.042Z,-2.80
2018-02-07T06:00:22.470Z,-2.80
2018-02-07T06:02:49.947Z,-2.77
2018-02-07T06:05:17.361Z,-2.76
2018-02-07T06:07:44.777Z,-2.76
2018-02-07T06:10:12.208Z,-2.62
2018-02-07T06:12:39.652Z,-2.62
2018-02-07T06:15:07.085Z,-2.72
2018-02-07T06:17:34.526Z,-2.74
2018-02-07T06:20:01.956Z,-2.51
2018-02-07T06:22:29.418Z,-2.53
2018-02-07T06:24:56.865Z,-2.38
2018-02-07T06:27:24.307Z,-2.38
2018-02-07T06:29:52.036Z,-2.15
2018-02-07T06:32:19.465Z,-2.07
2018-02-07T06:34:46.890Z,-1.83
2018-02-07T06:37:14.330Z,-1.78
2018-02-07T06:39:41.774Z,-2.06
2018-02-07T06:42:09.206Z,-2.27
2018-02-07T06:44:36.637Z,-2.34
2018-02-07T06:47:04.061Z,-2.27
2018-02-07T06:49:31.690Z,-2.23
2018-02-07T06:51:59.109Z,-2.22
2018-02-07T06:54:26.563Z,-2.18
2018-02-07T06:56:53.982Z,-2.05
2018-02-07T06:59:21.447Z,-1.87
2018-02-07T07:01:48.823Z,-1.46
2018-02-07T07:04:16.245Z,-1.09
2018-02-07T07:06:43.678Z,-1.34
2018-02-07T07:09:11.110Z,-1.81
2018-02-07T07:11:38.536Z,-2.02
2018-02-07T07:14:05.978Z,-2.13
2018-02-07T07:16:33.405Z,-2.12
2018-02-07T07:19:00.877Z,-2.04
2018-02-07T07:21:28.298Z,-2.19
2018-02-07T07:23:55.713Z,-2.18
2018-02-07T07:26:23.414Z,-2.30
2018-02-07T07:28:50.906Z,-2.39
2018-02-07T07:31:18.349Z,-2.38
2018-02-07T07:33:45.806Z,-2.36
2018-02-07T07:36:13.317Z,-2.28
2018-02-07T07:38:40.735Z,-2.20
2018-02-07T07:41:08.254Z,-2.08
2018-02-07T07:43:35.734Z,-1.97
2018-02-07T07:46:03.152Z,-1.96
2018-02-07T07:48:30.560Z,-1.94
2018-02-07T07:50:58.042Z,-1.88
2018-02-07T07:53:25.414Z,-1.88
2018-02-07T07:55:52.840Z,-1.80
2018-02-07T07:58:20.261Z,-1.66
2018-02-07T08:00:47.690Z,-1.64
2018-02-07T08:03:15.109Z,-1.54
2018-02-07T08:05:42.589Z,-1.55
2018-02-07T08:08:10.030Z,-1.50
2018-02-07T08:10:37.501Z,-1.53
2018-02-07T08:13:04.934Z,-1.56
2018-02-07T08:15:32.379Z,-1.59
2018-02-07T08:17:59.797Z,-1.48
2018-02-07T08:20:27.233Z,-1.42
2018-02-07T08:22:54.888Z,-1.39
2018-02-07T08:25:22.304Z,-1.61
2018-02-07T08:27:49.762Z,-1.62
2018-02-07T08:30:17.170Z,-1.58
2018-02-07T08:32:44.594Z,-1.48
2018-02-07T08:35:12.043Z,-1.28
2018-02-07T08:37:39.474Z,-1.08
2018-02-07T08:40:06.899Z,-0.70
2018-02-07T08:42:34.322Z,-0.59
2018-02-07T08:45:01.814Z,-0.42
2018-02-07T08:47:29.245Z,-0.05
2018-02-07T08:49:56.664Z,0.18
2018-02-07T08:52:24.109Z,0.04
2018-02-07T08:54:51.524Z,0.00
2018-02-07T08:57:18.947Z,0.31
2018-02-07T08:59:46.387Z,0.13
2018-02-07T09:02:13.798Z,0.25
2018-02-07T09:04:41.210Z,0.20
2018-02-07T09:07:08.646Z,0.23
2018-02-07T09:09:36.154Z,0.49
2018-02-07T09:12:03.544Z,0.72
2018-02-07T09:14:30.985Z,0.80
2018-02-07T09:16:58.466Z,0.74
2018-02-07T09:19:26.417Z,0.87
2018-02-07T09:21:53.861Z,1.01
2018-02-07T09:24:21.274Z,0.28
2018-02-07T09:26:48.696Z,0.02
2018-02-07T09:29:16.113Z,-0.17
2018-02-07T09:31:43.558Z,-0.30
2018-02-07T09:34:10.974Z,-0.23
2018-02-07T09:36:38.404Z,-0.50
2018-02-07T09:39:05.822Z,-0.37
2018-02-07T09:41:33.240Z,-0.36
2018-02-07T09:44:00.665Z,-0.19
2018-02-07T09:46:28.090Z,-0.16
2018-02-07T09:48:55.525Z,0.14
2018-02-07T09:51:22.930Z,0.13
2018-02-07T09:53:50.366Z,0.21
2018-02-07T09:56:17.787Z,0.23
2018-02-07T09:58:45.224Z,0.66
2018-02-07T10:01:12.725Z,0.70
2018-02-07T10:03:40.149Z,0.49
2018-02-07T10:06:07.608Z,0.36
2018-02-07T10:08:35.017Z,0.60
2018-02-07T10:11:02.441Z,0.42
2018-02-07T10:13:29.889Z,0.32
2018-02-07T10:15:58.190Z,0.68
2018-02-07T10:18:25.615Z,0.72
2018-02-07T10:20:53.014Z,0.62
2018-02-07T10:23:20.440Z,0.52
2018-02-07T10:25:47.860Z,0.95
2018-02-07T10:28:15.284Z,1.19
2018-02-07T10:30:42.726Z,1.39
2018-02-07T10:33:10.139Z,1.68
2018-02-07T10:35:37.557Z,1.73
2018-02-07T10:38:04.967Z,1.39
2018-02-07T10:40:32.382Z,1.52
2018-02-07T10:42:59.814Z,1.72
2018-02-07T10:45:27.262Z,1.83
2018-02-07T10:47:54.661Z,1.51
2018-02-07T10:50:22.081Z,1.41
2018-02-07T10:52:49.489Z,1.80
2018-02-07T10:55:16.916Z,1.89
2018-02-07T10:57:44.345Z,2.07
2018-02-07T11:00:11.766Z,2.27
2018-02-07T11:02:39.187Z,1.87
2018-02-07T11:05:06.622Z,2.02
2018-02-07T11:07:34.038Z,2.38
2018-02-07T11:10:01.645Z,2.54
2018-02-07T11:12:29.989Z,2.29
2018-02-07T11:14:57.414Z,2.39
2018-02-07T11:17:24.928Z,2.60
2018-02-07T11:19:52.400Z,2.62
2018-02-07T11:22:19.790Z,2.57
2018-02-07T11:24:47.260Z,2.72
2018-02-07T11:27:14.673Z,2.71
2018-02-07T11:29:42.102Z,2.80
2018-02-07T11:32:09.507Z,2.79
2018-02-07T11:34:36.938Z,2.21
2018-02-07T11:37:04.369Z,2.60
2018-02-07T11:39:31.808Z,2.52
2018-02-07T11:41:59.220Z,2.77
2018-02-07T11:44:26.637Z,2.67
2018-02-07T11:46:54.069Z,2.79
2018-02-07T11:49:21.481Z,2.83
2018-02-07T11:51:48.902Z,2.87
2018-02-07T11:54:16.325Z,2.20
2018-02-07T11:56:43.742Z,2.55
2018-02-07T11:59:11.258Z,2.65
2018-02-07T12:01:38.760Z,2.72
2018-02-07T12:04:06.190Z,2.90
2018-02-07T12:06:33.623Z,2.76
2018-02-07T12:09:01.939Z,2.33
2018-02-07T12:11:29.376Z,2.55
2018-02-07T12:13:56.780Z,2.59
2018-02-07T12:16:24.212Z,2.18
2018-02-07T12:18:51.617Z,2.11
2018-02-07T12:21:19.037Z,2.36
2018-02-07T12:23:46.470Z,2.82
2018-02-07T12:26:13.918Z,2.86
2018-02-07T12:28:41.362Z,2.63
2018-02-07T12:31:08.789Z,2.47
2018-02-07T12:33:36.198Z,2.41
2018-02-07T12:36:03.626Z,2.66
2018-02-07T12:38:31.029Z,2.81
2018-02-07T12:40:58.477Z,2.80
2018-02-07T12:43:25.967Z,3.15
2018-02-07T12:45:53.405Z,3.41
2018-02-07T12:48:20.829Z,3.26
2018-02-07T12:50:48.233Z,3.25
2018-02-07T12:53:15.653Z,2.67
2018-02-07T12:55:43.146Z,2.85
2018-02-07T12:58:10.601Z,2.70
2018-02-07T13:00:38.045Z,3.04
2018-02-07T13:03:05.506Z,3.27
2018-02-07T13:05:33.901Z,3.26
2018-02-07T13:08:01.321Z,3.35
2018-02-07T13:10:28.737Z,2.88
2018-02-07T13:12:56.157Z,2.82
2018-02-07T13:15:23.565Z,2.65
2018-02-07T13:17:50.992Z,2.88
2018-02-07T13:20:18.393Z,2.68
2018-02-07T13:22:45.818Z,2.29
2018-02-07T13:25:13.222Z,2.40
2018-02-07T13:27:40.689Z,2.71
2018-02-07T13:30:08.109Z,2.67
2018-02-07T13:32:35.557Z,2.55
2018-02-07T13:35:02.973Z,2.71
2018-02-07T13:37:30.400Z,2.51
2018-02-07T13:39:57.815Z,2.34
2018-02-07T13:42:25.237Z,2.68
2018-02-07T13:44:52.633Z,2.83
2018-02-07T13:47:20.057Z,2.57
2018-02-07T13:49:47.497Z,2.52
2018-02-07T13:52:14.979Z,2.59
2018-02-07T13:54:42.410Z,2.17
2018-02-07T13:57:09.853Z,2.20
2018-02-07T13:59:37.298Z,2.27
2018-02-07T14:02:04.723Z,2.20
2018-02-07T14:04:32.136Z,2.48
2018-02-07T14:06:59.538Z,2.47
2018-02-07T14:09:26.962Z,2.35
2018-02-07T14:11:54.384Z,2.37
2018-02-07T14:14:21.802Z,2.48
2018-02-07T14:16:49.214Z,2.78
2018-02-07T14:19:16.636Z,2.79
2018-02-07T14:21:44.101Z,2.89
2018-02-07T14:24:11.541Z,2.95
2018-02-07T14:26:38.952Z,2.97
2018-02-07T14:29:07.199Z,3.10
2018-02-07T14:31:34.613Z,2.90
2018-02-07T14:34:02.054Z,2.86
2018-02-07T14:36:29.465Z,2.86
2018-02-07T14:38:56.885Z,2.90
2018-02-07T14:41:24.331Z,2.68
2018-02-07T14:43:51.717Z,2.75
2018-02-07T14:46:19.230Z,2.83
2018-02-07T14:48:46.757Z,2.94
2018-02-07T14:51:14.168Z,2.93
2018-02-07T14:53:41.677Z,2.39
2018-02-07T14:56:09.045Z,2.64
2018-02-07T14:58:36.468Z,2.81
2018-02-07T15:01:03.875Z,2.80
2018-02-07T15:03:31.282Z,2.84
2018-02-07T15:05:58.709Z,2.47
2018-02-07T15:08:26.124Z,2.57
2018-02-07T15:10:53.597Z,2.56
2018-02-07T15:13:21.020Z,2.41
2018-02-07T15:15:48.455Z,2.28
2018-02-07T15:18:15.882Z,2.21
2018-02-07T15:20:43.351Z,2.14
2018-02-07T15:23:10.725Z,2.03
2018-02-07T15:25:38.147Z,2.26
2018-02-07T15:28:05.584Z,2.35
2018-02-07T15:30:32.986Z,2.35
2018-02-07T15:33:00.437Z,2.36
2018-02-07T15:35:27.871Z,2.30
2018-02-07T15:37:55.268Z,2.35
2018-02-07T15:40:22.685Z,2.17
2018-02-07T15:42:50.105Z,2.38
2018-02-07T15:45:17.554Z,2.41
2018-02-07T15:47:44.984Z,2.33
2018-02-07T15:50:12.390Z,2.37
2018-02-07T15:52:40.457Z,2.26
2018-02-07T15:55:07.879Z,1.97
2018-02-07T15:57:35.283Z,1.95
2018-02-07T16:00:02.757Z,1.95
2018-02-07T16:02:30.169Z,1.99
2018-02-07T16:04:57.593Z,1.96
2018-02-07T16:07:25.043Z,1.91
2018-02-07T16:09:52.445Z,2.10
2018-02-07T16:12:19.857Z,1.98
2018-02-07T16:14:47.276Z,2.02
2018-02-07T16:17:14.705Z,2.06
2018-02-07T16:19:42.137Z,1.91
2018-02-07T16:22:09.582Z,1.95
2018-02-07T16:24:37.009Z,1.94
2018-02-07T16:27:04.436Z,1.88
2018-02-07T16:29:31.842Z,1.71
2018-02-07T16:31:59.272Z,1.60
2018-02-07T16:34:26.781Z,1.61
2018-02-07T16:36:54.205Z,1.78
2018-02-07T16:39:21.626Z,1.65
2018-02-07T16:41:49.078Z,1.58
2018-02-07T16:44:16.483Z,1.62
2018-02-07T16:46:43.931Z,1.45
2018-02-07T16:49:11.338Z,1.46
2018-02-07T16:51:38.797Z,1.53
2018-02-07T16:54:06.249Z,1.51
2018-02-07T16:56:33.705Z,1.54
2018-02-07T16:59:01.118Z,1.53
2018-02-07T17:01:28.528Z,1.52
2018-02-07T17:03:55.995Z,1.70
2018-02-07T17:06:23.415Z,1.63
2018-02-07T17:08:50.816Z,1.68
2018-02-07T17:11:18.269Z,1.85
2018-02-07T17:13:45.783Z,1.78
2018-02-07T17:16:14.047Z,1.70
2018-02-07T17:18:41.447Z,1.43
2018-02-07T17:21:08.912Z,1.42
2018-02-07T17:23:36.337Z,1.63
2018-02-07T17:26:03.761Z,1.57
2018-02-07T17:28:31.210Z,1.53
2018-02-07T17:30:58.625Z,1.50
2018-02-07T17:33:26.042Z,1.64
2018-02-07T17:35:53.450Z,1.51
2018-02-07T17:38:20.870Z,1.54
2018-02-07T17:40:48.279Z,1.50
2018-02-07T17:43:16.509Z,1.37
2018-02-07T17:45:43.920Z,1.41
2018-02-07T17:48:11.336Z,1.38
2018-02-07T17:50:38.781Z,1.39
2018-02-07T17:53:06.205Z,1.46
2018-02-07T17:55:33.632Z,1.53
2018-02-07T17:58:01.062Z,1.54
2018-02-07T18:00:28.478Z,1.41
2018-02-07T18:02:55.906Z,1.32
2018-02-07T18:05:23.312Z,1.24
2018-02-07T18:07:50.801Z,1.27
2018-02-07T18:10:18.180Z,1.36
2018-02-07T18:12:46.578Z,1.59
2018-02-07T18:15:13.991Z,1.49
2018-02-07T18:17:41.410Z,1.49
2018-02-07T18:20:08.857Z,1.57
2018-02-07T18:22:36.292Z,1.75
2018-02-07T18:25:03.709Z,1.64
2018-02-07T18:27:31.118Z,1.58
2018-02-07T18:29:58.610Z,1.66
2018-02-07T18:32:26.025Z,1.51
2018-02-07T18:34:53.450Z,1.61
2018-02-07T18:37:20.873Z,2.06
2018-02-07T18:39:48.296Z,1.87
2018-02-07T18:42:15.713Z,1.66
2018-02-07T18:44:43.131Z,1.53
2018-02-07T18:47:10.542Z,1.59
2018-02-07T18:49:37.979Z,1.60
2018-02-07T18:52:05.385Z,1.78
2018-02-07T18:54:32.809Z,1.55
2018-02-07T18:57:00.220Z,1.63
2018-02-07T18:59:27.631Z,1.50
2018-02-07T19:01:55.046Z,1.46
2018-02-07T19:04:22.457Z,1.50
2018-02-07T19:06:49.894Z,1.62
2018-02-07T19:09:17.305Z,1.71
2018-02-07T19:11:44.729Z,1.74
2018-02-07T19:14:12.153Z,1.76
2018-02-07T19:16:39.640Z,1.68
2018-02-07T19:19:07.059Z,1.94
2018-02-07T19:21:34.472Z,2.20
2018-02-07T19:24:01.882Z,1.92
2018-02-07T19:26:29.297Z,1.94
2018-02-07T19:28:56.727Z,1.57
2018-02-07T19:31:24.194Z,1.41
2018-02-07T19:33:51.618Z,1.61
2018-02-07T19:36:19.061Z,1.54
2018-02-07T19:38:46.485Z,1.48
2018-02-07T19:41:13.899Z,1.30
2018-02-07T19:43:41.318Z,1.14
2018-02-07T19:46:08.779Z,1.24
2018-02-07T19:48:36.230Z,1.17
2018-02-07T19:51:03.657Z,1.17
2018-02-07T19:53:31.078Z,1.17
2018-02-07T19:55:58.560Z,1.43
2018-02-07T19:58:25.960Z,1.21
2018-02-07T20:00:53.423Z,1.28
2018-02-07T20:03:21.798Z,1.10
2018-02-07T20:05:49.211Z,0.98
2018-02-07T20:08:16.634Z,1.00
2018-02-07T20:10:44.045Z,1.07
2018-02-07T20:13:11.502Z,0.98
2018-02-07T20:15:38.969Z,0.97
2018-02-07T20:18:06.390Z,1.22
2018-02-07T20:20:33.865Z,1.28
2018-02-07T20:23:01.279Z,1.31
2018-02-07T20:25:28.751Z,1.45
2018-02-07T20:27:56.177Z,1.42
2018-02-07T20:30:23.593Z,1.33
2018-02-07T20:32:51.009Z,1.17
2018-02-07T20:35:18.434Z,1.25
2018-02-07T20:37:47.323Z,1.10
2018-02-07T20:40:22.645Z,1.38
2018-02-07T20:42:50.879Z,1.58
2018-02-07T20:45:18.448Z,1.33
2018-02-07T20:47:45.939Z,1.33
2018-02-07T20:50:13.342Z,1.22
2018-02-07T20:52:41.725Z,1.09
2018-02-07T20:55:09.180Z,1.38
2018-02-07T20:57:39.446Z,1.59
2018-02-07T21:00:06.948Z,1.47
2018-02-07T21:02:34.382Z,1.38
2018-02-07T21:05:05.388Z,1.59
2018-02-07T21:07:32.815Z,1.55
2018-02-07T21:10:00.221Z,1.64
2018-02-07T21:12:28.482Z,1.32
2018-02-07T21:14:55.885Z,1.37
2018-02-07T21:17:23.638Z,1.45
2018-02-07T21:19:51.042Z,1.40
2018-02-07T21:22:18.534Z,1.22
2018-02-07T21:24:45.982Z,1.34
2018-02-07T21:27:13.551Z,1.33
2018-02-07T21:29:44.580Z,1.06
2018-02-07T21:32:12.813Z,1.05
2018-02-07T21:34:45.280Z,1.02
2018-02-07T21:37:14.513Z,1.37
2018-02-07T21:39:42.100Z,1.60
2018-02-07T21:42:10.390Z,1.36
2018-02-07T21:44:37.829Z,1.22
2018-02-07T21:47:05.266Z,0.99
2018-02-07T21:49:34.159Z,1.18
2018-02-07T21:52:03.653Z,1.10
2018-02-07T21:54:31.590Z,0.93
2018-02-07T21:57:01.085Z,0.97
2018-02-07T22:02:39.783Z,1.41
2018-02-07T22:05:07.188Z,1.61
2018-02-07T22:07:34.601Z,1.70
2018-02-07T22:10:02.005Z,1.43
2018-02-07T22:12:29.424Z,1.38
2018-02-07T22:14:56.821Z,1.02
2018-02-07T22:17:25.209Z,0.95
2018-02-07T22:19:52.621Z,0.89
2018-02-07T22:22:20.039Z,0.98
2018-02-07T22:24:47.441Z,1.21
2018-02-07T22:27:14.861Z,0.99
2018-02-07T22:29:42.265Z,0.99
2018-02-07T22:32:09.680Z,1.20
2018-02-07T22:34:37.099Z,1.20
2018-02-07T22:37:04.504Z,1.05
2018-02-07T22:39:31.927Z,0.96
2018-02-07T22:41:59.331Z,0.96
2018-02-07T22:44:26.751Z,1.17
2018-02-07T22:46:54.161Z,1.04
2018-02-07T22:49:21.582Z,1.12
2018-02-07T22:51:48.987Z,0.98
2018-02-07T22:54:16.401Z,0.96
2018-02-07T22:56:43.811Z,0.99
2018-02-07T22:59:11.234Z,0.91
2018-02-07T23:01:38.644Z,0.94
2018-02-07T23:04:06.061Z,0.96
2018-02-07T23:06:33.470Z,0.82
2018-02-07T23:09:00.885Z,0.79
2018-02-07T23:11:28.296Z,0.87
2018-02-07T23:13:56.753Z,0.74
2018-02-07T23:16:24.156Z,0.76
2018-02-07T23:18:51.580Z,0.91
2018-02-07T23:21:18.976Z,1.18
2018-02-07T23:23:46.396Z,1.14
2018-02-07T23:26:13.878Z,0.98
2018-02-07T23:28:41.276Z,1.16
2018-02-07T23:31:08.693Z,1.14
2018-02-07T23:33:36.106Z,1.02
2018-02-07T23:36:03.508Z,1.14
2018-02-07T23:38:30.934Z,1.13
2018-02-07T23:40:58.343Z,1.17
2018-02-07T23:43:25.744Z,1.15
2018-02-07T23:45:53.164Z,1.39
2018-02-07T23:48:20.572Z,1.13
2018-02-07T23:50:47.981Z,1.11
2018-02-07T23:53:15.389Z,1.31
2018-02-07T23:55:42.814Z,1.13
2018-02-07T23:58:10.210Z,0.94
